createdAt,value
2022-10-02T00:00:21.199Z,3.08
2022-10-02T00:02:54.833Z,2.72
2022-10-02T00:05:28.380Z,3.08
2022-10-02T00:08:02.811Z,3.08
2022-10-02T00:10:36.224Z,3.45
2022-10-02T00:13:07.494Z,3.13
2022-10-02T00:15:37.971Z,3.38
2022-10-02T00:18:13.073Z,3.10
2022-10-02T00:20:47.490Z,3.20
2022-10-02T00:23:22.725Z,3.20
2022-10-02T00:25:58.559Z,3.20
2022-10-02T00:28:30.836Z,3.40
2022-10-02T00:31:23.818Z,3.08
2022-10-02T00:34:07.151Z,2.60
2022-10-02T00:36:45.241Z,3.00
2022-10-02T00:39:31.087Z,2.47
2022-10-02T00:42:27.065Z,2.50
2022-10-02T00:45:22.227Z,2.65
2022-10-02T00:47:59.554Z,2.60
2022-10-02T00:50:40.812Z,2.78
2022-10-02T00:53:23.729Z,2.80
2022-10-02T00:56:05.237Z,2.97
2022-10-02T00:58:58.684Z,2.63
2022-10-02T01:01:34.587Z,2.47
2022-10-02T01:04:10.115Z,2.83
2022-10-02T01:06:39.971Z,2.42
2022-10-02T01:09:08.822Z,2.10
2022-10-02T01:11:37.773Z,2.05
2022-10-02T01:14:06.266Z,2.15
2022-10-02T01:16:36.016Z,2.20
2022-10-02T01:19:06.299Z,1.90
2022-10-02T01:21:39.987Z,2.10
2022-10-02T01:24:14.192Z,2.10
2022-10-02T01:26:44.320Z,2.05
2022-10-02T01:29:12.742Z,2.15
2022-10-02T01:31:42.718Z,2.20
2022-10-02T01:34:11.850Z,2.20
2022-10-02T01:36:40.410Z,2.28
2022-10-02T01:39:08.668Z,2.25
2022-10-02T01:41:42.737Z,2.10
2022-10-02T01:44:14.563Z,1.90
2022-10-02T01:46:54.844Z,1.95
2022-10-02T01:49:40.837Z,2.00
2022-10-02T01:54:56.713Z,1.67
2022-10-02T01:57:31.728Z,1.90
2022-10-02T02:00:09.104Z,1.63
2022-10-02T02:02:53.078Z,1.90
2022-10-02T02:05:29.850Z,2.00
2022-10-02T02:08:07.589Z,1.83
2022-10-02T02:10:46.089Z,1.65
2022-10-02T02:13:22.478Z,1.83
2022-10-02T02:16:21.171Z,1.80
2022-10-02T02:18:55.143Z,1.75
2022-10-02T02:21:29.015Z,1.58
2022-10-02T02:23:59.850Z,1.60
2022-10-02T02:26:30.221Z,1.50
2022-10-02T02:29:03.658Z,1.55
2022-10-02T02:31:38.310Z,1.42
2022-10-02T02:34:11.011Z,1.45
2022-10-02T02:36:44.311Z,1.30
2022-10-02T02:39:18.271Z,1.33
2022-10-02T02:41:51.026Z,1.27
2022-10-02T02:44:25.458Z,1.02
2022-10-02T02:47:07.096Z,1.00
2022-10-02T02:49:42.288Z,0.93
2022-10-02T02:52:15.843Z,0.70
2022-10-02T02:54:48.175Z,1.30
2022-10-02T02:57:19.173Z,0.95
2022-10-02T02:59:50.651Z,1.10
2022-10-02T03:02:20.513Z,1.10
2022-10-02T03:04:48.941Z,1.13
2022-10-02T03:07:18.747Z,1.00
2022-10-02T03:09:58.451Z,1.00
2022-10-02T03:15:24.042Z,1.00
2022-10-02T03:18:13.490Z,0.98
2022-10-02T03:20:48.328Z,1.00
2022-10-02T03:23:24.159Z,0.93
2022-10-02T03:26:00.137Z,2.17
2022-10-02T03:28:54.562Z,0.80
2022-10-02T03:31:22.592Z,8.13
2022-10-02T03:33:53.941Z,1.40
2022-10-02T03:36:24.678Z,2.80
2022-10-02T03:39:19.819Z,7.82
2022-10-02T03:41:44.695Z,1.00
2022-10-02T03:44:12.975Z,0.90
2022-10-02T03:46:41.769Z,1.10
2022-10-02T03:49:11.476Z,1.52
2022-10-02T03:51:39.754Z,0.82
2022-10-02T03:54:16.752Z,0.80
2022-10-02T03:56:53.912Z,0.90
2022-10-02T03:59:35.045Z,0.68
2022-10-02T04:02:08.058Z,0.70
2022-10-02T04:07:17.722Z,0.80
2022-10-02T04:09:53.350Z,0.45
2022-10-02T04:12:28.065Z,3.65
2022-10-02T04:15:02.357Z,8.77
2022-10-02T04:17:44.114Z,1.00
2022-10-02T04:20:19.451Z,2.30
2022-10-02T04:22:53.880Z,0.70
2022-10-02T04:25:24.121Z,1.55
2022-10-02T04:27:56.309Z,0.75
2022-10-02T04:30:24.669Z,1.48
2022-10-02T04:32:53.820Z,1.40
2022-10-02T04:35:30.821Z,0.60
2022-10-02T04:38:21.707Z,0.65
2022-10-02T04:41:04.583Z,0.50
2022-10-02T04:43:47.750Z,0.40
2022-10-02T04:46:34.837Z,0.45
2022-10-02T04:49:33.047Z,0.30
2022-10-02T04:52:25.428Z,0.40
2022-10-02T04:55:08.031Z,0.28
2022-10-02T04:58:08.134Z,0.40
2022-10-02T05:00:42.129Z,1.08
2022-10-02T05:03:27.545Z,0.40
2022-10-02T05:06:07.703Z,0.43
2022-10-02T05:08:51.424Z,0.40
2022-10-02T05:11:40.622Z,0.30
2022-10-02T05:14:48.548Z,0.32
2022-10-02T05:17:31.765Z,0.43
2022-10-02T05:20:19.048Z,0.50
2022-10-02T05:22:57.893Z,0.50
2022-10-02T05:25:53.559Z,0.22
2022-10-02T05:28:42.232Z,0.30
2022-10-02T05:31:22.553Z,0.30
2022-10-02T05:34:15.159Z,0.40
2022-10-02T05:37:13.881Z,0.70
2022-10-02T05:39:51.457Z,1.27
2022-10-02T05:42:29.379Z,0.30
2022-10-02T05:45:05.964Z,0.63
2022-10-02T05:47:39.572Z,0.30
2022-10-02T05:50:22.095Z,0.60
2022-10-02T05:52:58.246Z,0.40
2022-10-02T05:55:33.981Z,0.40
2022-10-02T05:58:12.252Z,0.40
2022-10-02T06:00:48.199Z,0.40
2022-10-02T06:03:23.914Z,0.38
2022-10-02T06:05:57.792Z,0.40
2022-10-02T06:08:32.178Z,0.40
2022-10-02T06:11:06.848Z,0.40
2022-10-02T06:13:42.521Z,2.83
2022-10-02T06:16:16.702Z,0.52
2022-10-02T06:18:50.312Z,0.40
2022-10-02T06:21:29.504Z,0.40
2022-10-02T06:24:01.632Z,0.40
2022-10-02T06:26:39.687Z,0.40
2022-10-02T06:29:18.743Z,0.60
2022-10-02T06:31:55.765Z,0.30
2022-10-02T06:34:24.518Z,0.50
2022-10-02T06:37:19.844Z,0.30
2022-10-02T06:40:15.257Z,0.30
2022-10-02T06:42:55.724Z,0.30
2022-10-02T06:45:36.386Z,0.40
2022-10-02T06:48:14.014Z,0.60
2022-10-02T06:50:47.968Z,0.90
2022-10-02T06:53:29.434Z,0.30
2022-10-02T06:56:09.520Z,0.50
2022-10-02T06:58:56.850Z,0.30
2022-10-02T07:01:39.720Z,0.30
2022-10-02T07:04:34.055Z,0.70
2022-10-02T07:07:19.863Z,0.47
2022-10-02T07:10:02.909Z,0.30
2022-10-02T07:13:11.879Z,1.33
2022-10-02T07:16:07.205Z,1.15
2022-10-02T07:18:50.823Z,0.40
2022-10-02T07:21:33.532Z,0.50
2022-10-02T07:24:15.220Z,0.88
2022-10-02T07:26:51.111Z,0.50
2022-10-02T07:29:33.619Z,0.40
2022-10-02T07:32:19.957Z,0.60
2022-10-02T07:35:03.286Z,0.30
2022-10-02T07:37:44.916Z,0.50
2022-10-02T07:40:30.705Z,0.50
2022-10-02T07:45:44.071Z,0.50
2022-10-02T07:48:36.155Z,0.77
2022-10-02T07:51:38.948Z,1.00
2022-10-02T07:54:22.943Z,1.30
2022-10-02T07:56:54.550Z,0.73
2022-10-02T07:59:25.765Z,0.30
2022-10-02T08:01:56.525Z,0.70
2022-10-02T08:04:36.855Z,0.30
2022-10-02T08:07:10.313Z,0.63
2022-10-02T08:09:43.732Z,0.85
2022-10-02T08:12:28.702Z,0.65
2022-10-02T08:14:59.881Z,0.80
2022-10-02T08:17:32.091Z,0.60
2022-10-02T08:20:04.500Z,0.55
2022-10-02T08:22:40.458Z,0.52
2022-10-02T08:25:18.350Z,0.70
2022-10-02T08:27:53.637Z,0.60
2022-10-02T08:30:23.123Z,0.47
2022-10-02T08:32:52.023Z,1.08
2022-10-02T08:35:21.337Z,0.80
2022-10-02T08:38:12.865Z,1.63
2022-10-02T08:41:11.707Z,0.90
2022-10-02T08:44:22.303Z,1.38
2022-10-02T08:47:19.205Z,0.55
2022-10-02T08:50:08.987Z,1.10
2022-10-02T08:53:13.594Z,0.70
2022-10-02T08:56:04.562Z,1.30
2022-10-02T08:59:05.568Z,1.02
2022-10-02T09:02:00.191Z,0.85
2022-10-02T09:05:01.029Z,1.27
2022-10-02T09:08:08.526Z,1.23
2022-10-02T09:11:22.964Z,1.63
2022-10-02T09:14:13.903Z,3.00
2022-10-02T09:17:10.000Z,1.98
2022-10-02T09:19:50.271Z,1.05
2022-10-02T09:22:49.117Z,1.00
2022-10-02T09:25:33.818Z,0.98
2022-10-02T09:28:33.172Z,4.28
2022-10-02T09:31:33.491Z,0.90
2022-10-02T09:34:51.192Z,1.50
2022-10-02T09:40:34.721Z,0.93
2022-10-02T09:43:33.990Z,0.82
2022-10-02T09:46:30.568Z,1.15
2022-10-02T09:49:41.420Z,1.10
2022-10-02T09:52:53.053Z,1.15
2022-10-02T09:56:21.158Z,1.20
2022-10-02T09:59:32.215Z,1.13
2022-10-02T10:02:44.701Z,1.05
2022-10-02T10:05:55.301Z,0.98
2022-10-02T10:08:42.319Z,0.80
2022-10-02T10:11:44.614Z,1.00
2022-10-02T10:14:50.348Z,1.00
2022-10-02T10:18:10.496Z,1.35
2022-10-02T10:21:04.048Z,1.00
2022-10-02T10:24:05.222Z,1.00
2022-10-02T10:27:08.225Z,1.42
2022-10-02T10:30:07.634Z,1.10
2022-10-02T10:33:14.854Z,0.90
2022-10-02T10:35:58.194Z,1.30
2022-10-02T10:38:52.342Z,1.45
2022-10-02T10:42:01.862Z,1.33
2022-10-02T10:45:07.197Z,1.38
2022-10-02T10:48:14.288Z,1.15
2022-10-02T10:51:20.106Z,1.30
2022-10-02T10:54:18.421Z,1.13
2022-10-02T10:56:53.771Z,1.02
2022-10-02T11:00:00.177Z,1.20
2022-10-02T11:03:22.821Z,0.95
2022-10-02T11:06:24.072Z,0.93
2022-10-02T11:09:30.635Z,1.90
2022-10-02T11:12:24.793Z,1.17
2022-10-02T11:15:18.883Z,1.10
2022-10-02T11:18:18.542Z,0.90
2022-10-02T11:21:11.933Z,0.90
2022-10-02T11:23:59.754Z,1.00
2022-10-02T11:26:40.335Z,1.20
2022-10-02T11:29:34.780Z,1.58
2022-10-02T11:32:33.466Z,1.40
2022-10-02T11:35:26.515Z,1.00
2022-10-02T11:38:15.411Z,1.00
2022-10-02T11:41:03.702Z,1.58
2022-10-02T11:44:00.016Z,1.10
2022-10-02T11:46:48.750Z,1.30
2022-10-02T11:50:01.711Z,1.10
2022-10-02T11:52:50.142Z,1.10
2022-10-02T11:55:32.885Z,1.20
2022-10-02T11:58:15.714Z,1.05
2022-10-02T12:01:21.248Z,1.00
2022-10-02T12:04:10.228Z,1.83
2022-10-02T12:06:54.424Z,1.38
2022-10-02T12:09:37.926Z,1.30
2022-10-02T12:12:27.894Z,1.27
2022-10-02T12:15:12.906Z,0.82
2022-10-02T12:18:08.532Z,1.30
2022-10-02T12:21:14.628Z,1.00
2022-10-02T12:24:08.345Z,0.90
2022-10-02T12:27:04.706Z,1.30
2022-10-02T12:29:45.164Z,1.25
2022-10-02T12:32:28.760Z,1.30
2022-10-02T12:35:08.370Z,1.13
2022-10-02T12:37:47.642Z,1.38
2022-10-02T12:40:24.918Z,1.17
2022-10-02T12:43:21.117Z,1.17
2022-10-02T12:46:17.435Z,1.10
2022-10-02T12:48:58.641Z,1.10
2022-10-02T12:51:46.513Z,1.30
2022-10-02T12:54:53.916Z,1.10
2022-10-02T12:57:58.969Z,1.30
2022-10-02T13:00:42.322Z,1.30
2022-10-02T13:03:50.840Z,1.48
2022-10-02T13:06:53.500Z,1.50
2022-10-02T13:09:37.380Z,1.35
2022-10-02T13:12:30.829Z,1.20
2022-10-02T13:15:37.458Z,1.35
2022-10-02T13:18:38.983Z,1.50
2022-10-02T13:21:18.401Z,1.50
2022-10-02T13:23:59.667Z,1.48
2022-10-02T13:26:37.970Z,1.52
2022-10-02T13:29:31.763Z,1.65
2022-10-02T13:32:21.314Z,1.83
2022-10-02T13:35:06.877Z,1.95
2022-10-02T13:37:51.398Z,1.77
2022-10-02T13:40:31.460Z,1.60
2022-10-02T13:43:36.451Z,1.60
2022-10-02T13:46:21.393Z,1.70
2022-10-02T13:49:06.846Z,1.80
2022-10-02T13:51:47.060Z,1.45
2022-10-02T13:54:50.689Z,4.05
2022-10-02T13:57:35.803Z,3.00
2022-10-02T14:00:24.825Z,1.90
2022-10-02T14:03:14.006Z,1.40
2022-10-02T14:05:55.723Z,1.42
2022-10-02T14:08:53.508Z,1.45
2022-10-02T14:11:37.001Z,1.55
2022-10-02T14:14:21.006Z,1.23
2022-10-02T14:17:00.274Z,1.80
2022-10-02T14:19:57.835Z,1.55
2022-10-02T14:22:43.233Z,1.50
2022-10-02T14:25:27.801Z,1.50
2022-10-02T14:28:24.805Z,1.42
2022-10-02T14:31:11.140Z,1.48
2022-10-02T14:33:58.841Z,1.52
2022-10-02T14:36:34.349Z,1.48
2022-10-02T14:39:20.840Z,1.92
2022-10-02T14:42:20.432Z,1.70
2022-10-02T14:45:41.427Z,1.40
2022-10-02T14:48:35.541Z,1.95
2022-10-02T14:51:26.676Z,1.90
2022-10-02T14:54:13.873Z,2.22
2022-10-02T14:57:01.961Z,2.28
2022-10-02T15:00:16.205Z,1.80
2022-10-02T15:03:30.165Z,2.15
2022-10-02T15:06:14.320Z,2.40
2022-10-02T15:08:48.767Z,2.70
2022-10-02T15:11:28.545Z,2.35
2022-10-02T15:14:04.845Z,2.22
2022-10-02T15:17:01.670Z,2.67
2022-10-02T15:19:39.137Z,3.30
2022-10-02T15:22:20.016Z,2.50
2022-10-02T15:24:56.568Z,2.92
2022-10-02T15:27:29.070Z,3.30
2022-10-02T15:30:15.390Z,3.47
2022-10-02T15:33:01.968Z,3.17
2022-10-02T15:35:41.814Z,3.20
2022-10-02T15:38:43.818Z,3.30
2022-10-02T15:41:35.202Z,3.35
2022-10-02T15:44:31.798Z,3.22
2022-10-02T15:47:20.272Z,3.00
2022-10-02T15:50:10.593Z,3.20
2022-10-02T15:52:56.470Z,3.13
2022-10-02T15:55:35.441Z,3.15
2022-10-02T15:58:29.722Z,3.50
2022-10-02T16:01:14.472Z,3.38
2022-10-02T16:03:47.710Z,4.00
2022-10-02T16:06:35.790Z,3.60
2022-10-02T16:09:23.158Z,3.70
2022-10-02T16:12:06.254Z,3.67
2022-10-02T16:14:51.452Z,3.92
2022-10-02T16:17:39.758Z,3.92
2022-10-02T16:20:38.011Z,3.75
2022-10-02T16:23:35.984Z,4.13
2022-10-02T16:26:44.849Z,4.15
2022-10-02T16:29:45.362Z,4.30
2022-10-02T16:32:27.732Z,3.78
2022-10-02T16:35:18.381Z,3.90
2022-10-02T16:37:50.494Z,4.03
2022-10-02T16:40:27.991Z,4.05
2022-10-02T16:43:36.484Z,3.70
2022-10-02T16:46:10.346Z,3.95
2022-10-02T16:48:50.020Z,4.65
2022-10-02T16:51:45.776Z,3.80
2022-10-02T16:54:22.289Z,4.40
2022-10-02T16:56:59.006Z,4.40
2022-10-02T16:59:29.968Z,4.35
2022-10-02T17:02:20.250Z,4.00
2022-10-02T17:05:03.751Z,3.90
2022-10-02T17:07:44.772Z,4.78
2022-10-02T17:10:25.183Z,3.97
2022-10-02T17:13:08.964Z,4.22
2022-10-02T17:15:48.629Z,4.88
2022-10-02T17:18:29.290Z,4.03
2022-10-02T17:21:19.689Z,3.80
2022-10-02T17:24:36.739Z,3.88
2022-10-02T17:27:15.962Z,4.53
2022-10-02T17:30:04.246Z,4.95
2022-10-02T17:32:53.281Z,3.97
2022-10-02T17:35:36.731Z,4.22
2022-10-02T17:38:45.018Z,3.38
2022-10-02T17:41:32.104Z,4.18
2022-10-02T17:44:12.222Z,3.97
2022-10-02T17:47:24.851Z,4.07
2022-10-02T17:50:09.013Z,3.55
2022-10-02T17:53:06.746Z,5.55
2022-10-02T17:56:32.399Z,3.75
2022-10-02T17:59:46.120Z,3.72
2022-10-02T18:02:38.466Z,3.38
2022-10-02T18:05:31.600Z,3.67
2022-10-02T18:08:20.860Z,3.15
2022-10-02T18:11:09.185Z,3.65
2022-10-02T18:14:04.404Z,3.67
2022-10-02T18:16:48.652Z,3.88
2022-10-02T18:19:39.003Z,3.33
2022-10-02T18:22:26.773Z,2.90
2022-10-02T18:25:37.304Z,3.40
2022-10-02T18:28:18.509Z,2.92
2022-10-02T18:30:59.949Z,3.95
2022-10-02T18:33:46.081Z,3.03
2022-10-02T18:36:37.594Z,3.85
2022-10-02T18:39:20.780Z,4.05
2022-10-02T18:41:58.439Z,3.38
2022-10-02T18:44:45.745Z,3.20
2022-10-02T18:47:29.520Z,3.60
2022-10-02T18:50:20.087Z,3.70
2022-10-02T18:53:05.245Z,3.88
2022-10-02T18:55:49.439Z,4.10
2022-10-02T18:58:28.796Z,4.25
2022-10-02T19:04:07.472Z,5.28
2022-10-02T19:06:46.992Z,3.72
2022-10-02T19:09:25.463Z,4.72
2022-10-02T19:12:02.293Z,3.42
2022-10-02T19:14:42.638Z,3.90
2022-10-02T19:17:18.238Z,3.70
2022-10-02T19:19:48.581Z,3.20
2022-10-02T19:22:28.035Z,3.22
2022-10-02T19:25:07.197Z,3.60
2022-10-02T19:27:38.880Z,3.60
2022-10-02T19:30:22.028Z,3.08
2022-10-02T19:32:53.916Z,3.45
2022-10-02T19:35:28.755Z,3.72
2022-10-02T19:38:12.743Z,3.92
2022-10-02T19:40:44.643Z,3.53
2022-10-02T19:43:25.078Z,5.82
2022-10-02T19:45:57.231Z,3.90
2022-10-02T19:48:29.040Z,3.83
2022-10-02T19:51:00.294Z,3.25
2022-10-02T19:53:34.532Z,3.83
2022-10-02T19:56:12.822Z,3.95
2022-10-02T19:58:46.563Z,3.40
2022-10-02T20:01:25.727Z,3.80
2022-10-02T20:03:58.404Z,3.92
2022-10-02T20:06:32.188Z,8.40
2022-10-02T20:09:06.347Z,3.65
2022-10-02T20:11:51.733Z,3.88
2022-10-02T20:14:25.249Z,3.75
2022-10-02T20:17:14.933Z,5.03
2022-10-02T20:19:50.830Z,4.25
2022-10-02T20:22:30.651Z,4.03
2022-10-02T20:25:05.242Z,3.78
2022-10-02T20:27:52.599Z,3.90
2022-10-02T20:30:26.140Z,3.92
2022-10-02T20:33:06.244Z,4.00
2022-10-02T20:35:53.565Z,4.18
2022-10-02T20:38:27.591Z,4.05
2022-10-02T20:41:05.015Z,4.90
2022-10-02T20:43:40.847Z,4.40
2022-10-02T20:46:38.437Z,4.68
2022-10-02T20:49:45.811Z,4.72
2022-10-02T20:53:02.861Z,3.83
2022-10-02T20:55:41.477Z,4.50
2022-10-02T20:58:37.777Z,4.63
2022-10-02T21:01:18.954Z,27.75
2022-10-02T21:04:28.900Z,4.65
2022-10-02T21:07:38.667Z,4.97
2022-10-02T21:10:39.422Z,5.55
2022-10-02T21:13:47.637Z,5.68
2022-10-02T21:16:52.674Z,5.10
2022-10-02T21:19:44.133Z,5.53
2022-10-02T21:22:47.530Z,5.57
2022-10-02T21:25:42.468Z,6.20
2022-10-02T21:28:46.536Z,5.60
2022-10-02T21:31:32.264Z,5.50
2022-10-02T21:34:21.581Z,6.07
2022-10-02T21:37:05.678Z,5.53
2022-10-02T21:40:09.137Z,6.03
2022-10-02T21:43:28.602Z,6.05
2022-10-02T21:46:25.220Z,6.28
2022-10-02T21:49:40.712Z,6.13
2022-10-02T21:52:51.917Z,6.65
2022-10-02T21:55:53.285Z,6.18
2022-10-02T21:58:55.815Z,6.40
2022-10-02T22:02:08.634Z,7.03
2022-10-02T22:05:09.795Z,7.05
2022-10-02T22:07:47.431Z,6.90
2022-10-02T22:10:23.145Z,7.40
2022-10-02T22:13:15.470Z,7.15
2022-10-02T22:15:51.118Z,7.35
2022-10-02T22:18:30.079Z,7.22
2022-10-02T22:21:32.835Z,6.85
2022-10-02T22:24:20.311Z,8.52
2022-10-02T22:27:11.254Z,8.20
2022-10-02T22:29:50.495Z,8.02
2022-10-02T22:33:03.525Z,8.75
2022-10-02T22:35:44.909Z,9.45
2022-10-02T22:38:22.805Z,8.70
2022-10-02T22:40:55.246Z,8.85
2022-10-02T22:43:30.472Z,8.65
2022-10-02T22:46:03.750Z,8.40
2022-10-02T22:51:16.351Z,8.25
2022-10-02T22:53:52.160Z,9.23
2022-10-02T22:56:30.712Z,9.60
2022-10-02T22:59:08.008Z,9.23
2022-10-02T23:01:45.141Z,8.80
2022-10-02T23:04:23.716Z,8.90
2022-10-02T23:06:57.674Z,10.27
2022-10-02T23:09:37.928Z,9.60
2022-10-02T23:12:14.097Z,9.73
2022-10-02T23:14:55.931Z,10.27
2022-10-02T23:17:30.420Z,10.35
2022-10-02T23:20:07.985Z,11.55
2022-10-02T23:22:43.964Z,11.32
2022-10-02T23:25:26.215Z,10.13
2022-10-02T23:28:01.428Z,10.82
2022-10-02T23:30:35.753Z,10.77
2022-10-02T23:35:40.831Z,10.77
2022-10-02T23:38:21.010Z,10.30
2022-10-02T23:41:21.007Z,10.80
2022-10-02T23:44:00.538Z,9.95
2022-10-02T23:46:38.667Z,10.98
2022-10-02T23:49:10.429Z,10.65
2022-10-02T23:51:49.049Z,10.52
2022-10-02T23:54:45.474Z,10.43
2022-10-02T23:57:33.953Z,9.60
